Latest Weather Observations for Narrandera Airport

IDN60801

Issued at 1:03 pm EST Tuesday 30 June 2015 (issued every 30 minutes, with the page automatically refreshed every 10 minutes)

About weather observations | Map of weather stations | Latest weather observations for NSW | Other Formats
Station Details ID: 074148 Name: NARRANDERA AIRPORT AWS Lat: -34.70 Lon: 146.51 Height: 145.0 m
Data from the previous 72 hours. | See also: Recent months for locations in New South Wales
Date/Time
EST
Temp
°C
App
Temp
°C
Dew
Point
Rel
Hum
%
Delta-T
°C
Wind Press
QNH
hPa
Press
MSL
hPa
Rain
since 9 am
mm
Dir
 
Spd
km/h
Gust
km/h
Spd
kts
Gust
kts
30/01:00pm 10.9 8.1 3.2 59 3.4 WSW 7 15 4 8 1028.1 1028.3 0.0
30/12:30pm 11.0 8.0 4.2 63 3.0 NNW 9 13 5 7 1028.8 1029.0 0.0
30/12:00pm 10.3 7.5 5.3 71 2.3 NW 9 15 5 8 1029.4 1029.6 0.0
30/11:30am 8.6 5.6 6.1 84 1.2 NW 11 13 6 7 1029.9 1030.1 0.0
30/11:00am 7.6 4.6 6.1 90 0.7 NNW 11 15 6 8 1030.0 1030.2 0.0
30/10:30am 7.5 4.0 5.6 88 0.9 NNW 13 15 7 8 1030.4 1030.6 0.0
30/10:00am 7.3 4.3 5.9 91 0.6 NW 11 13 6 7 1030.4 1030.6 0.0
30/09:30am 6.5 3.9 5.9 96 0.3 NW 9 11 5 6 1030.2 1030.4 0.0
30/09:00am 5.4 4.0 5.4 100 0.0 N 2 6 1 3 1030.0 1030.2 0.0
30/08:30am 3.0 0.3 2.9 99 0.0 E 6 9 3 5 1029.7 1029.9 0.0
30/08:00am 0.9 -1.0 0.8 99 0.0 CALM 0 0 0 0 1030.0 1030.2 0.0
30/07:30am 1.9 -1.1 1.8 99 0.0 NW 7 11 4 6 1029.7 1029.9 0.0
30/07:00am 2.6 -1.1 2.5 99 0.0 NW 11 13 6 7 1029.5 1029.7 0.0
30/06:30am 2.8 -1.2 2.7 99 0.0 NW 13 15 7 8 1029.2 1029.4 0.0
30/06:00am 3.5 0.4 3.4 99 0.0 NW 9 11 5 6 1028.9 1029.1 0.0
30/05:30am 3.7 1.0 3.6 99 0.0 NW 7 9 4 5 1028.7 1028.9 0.0
30/05:00am 3.6 1.4 3.5 99 0.0 NNW 4 6 2 3 1028.7 1028.9 0.0
30/04:30am 3.7 1.2 3.6 99 0.0 NNW 6 7 3 4 1028.7 1028.9 0.0
30/04:00am 3.8 2.4 3.7 99 0.0 CALM 0 0 0 0 1028.8 1029.0 0.0
30/03:30am 4.1 2.0 4.0 99 0.0 NW 4 7 2 4 1029.0 1029.2 0.0
30/03:00am 3.3 1.5 3.2 99 0.0 WNW 2 6 1 3 1029.1 1029.3 0.0
30/02:30am 2.1 0.4 2.0 99 0.0 CALM 0 0 0 0 1029.0 1029.2 0.0
30/02:00am 3.0 1.5 2.9 99 0.0 CALM 0 0 0 0 1028.9 1029.1 0.0
30/01:30am 3.3 1.8 3.2 99 0.0 CALM 0 0 0 0 1029.1 1029.3 0.0
30/01:00am 2.9 1.4 2.8 99 0.0 CALM 0 0 0 0 1029.4 1029.6 0.0
30/12:30am 1.6 -0.2 1.5 99 0.0 CALM 0 0 0 0 1029.1 1029.3 0.0
30/12:00am 1.4 -0.4 1.3 99 0.0 CALM 0 0 0 0 1029.3 1029.5 0.0
 
Date/Time
EST
Temp
°C
App
Temp
°C
Dew
Point
Rel
Hum
%
Delta-T
°C
Wind Press
QNH
hPa
Press
MSL
hPa
Rain
since 9 am
mm
Dir
 
Spd
km/h
Gust
km/h
Spd
kts
Gust
kts
29/11:30pm 1.2 -0.6 1.1 99 0.0 CALM 0 0 0 0 1029.3 1029.5 0.0
29/11:00pm 1.5 -0.3 1.4 99 0.0 CALM 0 0 0 0 1029.3 1029.5 0.0
29/10:30pm 2.5 0.9 2.2 98 0.1 CALM 0 0 0 0 1029.5 1029.7 0.0
29/10:00pm 2.3 0.6 2.0 98 0.1 CALM 0 0 0 0 1029.7 1029.9 0.0
29/09:30pm 3.7 2.3 3.6 99 0.0 CALM 0 0 0 0 1030.0 1030.2 0.0
29/09:00pm 3.9 2.5 3.8 99 0.0 CALM 0 0 0 0 1030.0 1030.2 0.0
29/08:30pm 3.6 2.1 3.0 96 0.2 CALM 0 0 0 0 1030.0 1030.2 0.0
29/08:00pm 4.4 3.0 3.4 93 0.4 CALM 0 0 0 0 1030.1 1030.3 0.0
29/07:30pm 5.2 3.9 4.0 92 0.5 CALM 0 0 0 0 1030.2 1030.4 0.0
29/07:00pm 6.1 4.2 5.1 93 0.4 NNW 4 7 2 4 1030.2 1030.4 0.0
29/06:30pm 6.7 5.6 5.2 90 0.7 CALM 0 0 0 0 1030.0 1030.2 0.0
29/06:00pm 7.6 6.6 5.6 87 0.9 CALM 0 0 0 0 1030.0 1030.2 0.0
29/05:30pm 9.3 8.4 5.9 79 1.6 CALM 0 0 0 0 1030.0 1030.2 0.0
29/05:00pm 10.8 9.8 5.6 70 2.4 CALM 0 0 0 0 1030.1 1030.3 0.0
29/04:30pm 12.5 11.7 6.3 66 3.0 CALM 0 0 0 0 1030.1 1030.3 0.0
29/04:00pm 11.8 10.8 5.7 66 2.8 CALM 0 6 0 3 1030.1 1030.3 0.0
29/03:30pm 12.3 11.0 5.9 65 3.0 S 2 9 1 5 1030.1 1030.3 0.0
29/03:00pm 12.7 10.7 6.1 64 3.1 NW 6 9 3 5 1030.0 1030.2 0.0
29/02:30pm 12.7 11.4 6.1 64 3.1 N 2 9 1 5 1030.2 1030.4 0.0
29/02:00pm 12.2 9.7 6.5 68 2.7 NW 9 15 5 8 1030.3 1030.5 0.0
29/01:30pm 11.3 9.2 6.0 70 2.5 NW 6 15 3 8 1030.5 1030.8 0.0
29/01:00pm 11.2 9.0 6.3 72 2.3 WNW 7 13 4 7 1030.8 1031.1 0.0
29/12:30pm 10.5 7.9 6.1 74 2.1 WNW 9 13 5 7 1031.3 1031.6 0.0
29/12:00pm 9.6 7.4 5.2 74 2.0 N 6 13 3 7 1032.0 1032.3 0.0
29/11:30am 9.1 6.4 5.5 78 1.6 NE 9 17 5 9 1032.3 1032.6 0.0
29/11:00am 8.2 5.1 5.5 83 1.2 ENE 11 13 6 7 1032.6 1032.9 0.0
29/10:30am 6.7 4.3 5.2 90 0.7 E 7 11 4 6 1032.8 1033.1 0.0
29/10:00am 5.8 3.6 5.5 98 0.1 ENE 6 9 3 5 1033.1 1033.4 0.0
29/09:30am 3.3 0.7 3.2 99 0.0 ESE 6 9 3 5 1033.0 1033.3 0.0
29/09:00am 2.9 -0.3 2.8 99 0.0 E 9 13 5 7 1033.1 1033.4 0.0
29/08:30am 1.7 -1.7 1.6 99 0.0 E 9 11 5 6 1033.1 1033.4 0.0
29/08:00am -0.9 -3.0 -1.0 99 0.0 CALM 0 0 0 0 1033.0 1033.3 0.0
29/07:30am -1.3 -3.5 -1.6 98 0.0 CALM 0 0 0 0 1033.1 1033.4 0.0
29/07:00am -0.9 -3.0 -1.0 99 0.0 CALM 0 0 0 0 1033.1 1033.4 0.0
29/06:30am -1.2 -3.4 -1.3 99 0.0 CALM 0 0 0 0 1032.9 1033.2 0.0
29/06:00am -0.8 -2.9 -1.1 98 0.1 CALM 0 0 0 0 1032.7 1033.0 0.0
29/05:30am -0.8 -2.9 -1.1 98 0.1 CALM 0 0 0 0 1032.6 1032.9 0.0
29/05:00am -0.7 -2.8 -1.0 98 0.1 CALM 0 0 0 0 1032.5 1032.8 0.0
29/04:30am -0.9 -3.4 -1.2 98 0.1 S 2 9 1 5 1032.5 1032.8 0.0
29/04:00am -0.3 -2.4 -0.6 98 0.1 CALM 0 0 0 0 1032.6 1032.9 0.0
29/03:30am 0.0 -2.0 -0.3 98 0.1 CALM 0 0 0 0 1032.9 1033.2 0.0
29/03:00am 0.1 -1.9 -0.2 98 0.1 CALM 0 0 0 0 1033.0 1033.3 0.0
29/02:30am 0.2 -1.8 -0.2 97 0.1 CALM 0 0 0 0 1033.0 1033.3 0.0
29/02:00am 0.7 -1.2 0.4 98 0.1 CALM 0 0 0 0 1032.9 1033.2 0.0
29/01:30am 0.9 -1.0 0.5 97 0.1 CALM 0 0 0 0 1033.1 1033.4 0.0
29/01:00am 1.4 -0.4 1.0 97 0.1 CALM 0 0 0 0 1033.0 1033.3 0.0
29/12:30am 1.7 -0.1 1.3 97 0.2 CALM 0 0 0 0 1033.0 1033.3 0.0
29/12:00am 2.3 0.6 1.9 97 0.2 CALM 0 0 0 0 1033.2 1033.5 0.0
 
Date/Time
EST
Temp
°C
App
Temp
°C
Dew
Point
Rel
Hum
%
Delta-T
°C
Wind Press
QNH
hPa
Press
MSL
hPa
Rain
since 9 am
mm
Dir
 
Spd
km/h
Gust
km/h
Spd
kts
Gust
kts
28/11:30pm 2.7 1.0 2.0 95 0.3 CALM 0 0 0 0 1033.4 1033.7 0.0
28/11:00pm 3.4 1.8 2.7 95 0.3 CALM 0 0 0 0 1033.4 1033.7 0.0
28/10:30pm 3.9 2.1 3.2 95 0.3 ESE 2 6 1 3 1033.6 1033.9 0.0
28/10:00pm 3.9 1.1 2.9 93 0.4 ESE 7 9 4 5 1033.5 1033.8 0.0
28/09:30pm 4.6 3.2 3.4 92 0.5 CALM 0 0 0 0 1033.5 1033.8 0.0
28/09:00pm 5.2 3.9 3.9 91 0.5 CALM 0 0 0 0 1033.6 1033.9 0.0
28/08:30pm 5.2 2.1 3.5 89 0.7 ESE 9 9 5 5 1033.5 1033.8 0.0
28/08:00pm 6.4 3.8 4.1 85 1.0 ESE 7 9 4 5 1033.6 1033.9 0.0
28/07:30pm 7.9 5.4 4.8 81 1.4 E 7 9 4 5 1033.5 1033.8 0.0
28/07:00pm 8.8 6.6 5.5 80 1.5 SE 6 7 3 4 1033.6 1033.9 0.0
28/06:30pm 9.1 6.9 5.1 76 1.8 SSE 6 9 3 5 1033.3 1033.6 0.0
28/06:00pm 9.5 8.4 5.1 74 2.0 CALM 0 0 0 0 1033.1 1033.4 0.0
28/05:30pm 9.5 7.3 5.3 75 1.9 SE 6 7 3 4 1033.0 1033.3 0.0
28/05:00pm 9.8 8.7 5.0 72 2.2 CALM 0 0 0 0 1033.0 1033.3 0.0
28/04:30pm 10.0 8.8 4.8 70 2.4 CALM 0 6 0 3 1033.0 1033.3 0.0
28/04:00pm 10.1 8.5 4.7 69 2.4 SE 2 9 1 5 1033.1 1033.4 0.0
28/03:30pm 10.2 7.7 4.6 68 2.5 SE 7 11 4 6 1033.2 1033.5 0.0
28/03:00pm 10.3 7.8 4.9 69 2.4 SSE 7 13 4 7 1033.1 1033.4 0.0
28/02:30pm 10.3 7.8 4.7 68 2.5 SSE 7 13 4 7 1033.1 1033.4 0.0
28/02:00pm 10.4 7.9 4.8 68 2.5 SE 7 11 4 6 1033.1 1033.4 0.0
28/01:30pm 10.1 7.2 4.5 68 2.5 E 9 13 5 7 1033.4 1033.7 0.0
28/01:00pm 9.9 6.9 4.3 68 2.5 E 9 13 5 7 1033.7 1034.0 0.0
28/12:30pm 10.3 7.3 4.2 66 2.7 NE 9 13 5 7 1033.9 1034.2 0.0
28/12:00pm 10.3 7.4 4.5 67 2.6 ENE 9 15 5 8 1034.3 1034.5 0.0
28/11:30am 10.1 7.7 4.3 67 2.6 ESE 6 13 3 7 1034.7 1034.9 0.0
28/11:00am 9.2 6.2 4.0 70 2.3 E 9 17 5 9 1035.1 1035.3 0.0
28/10:30am 9.0 5.9 3.4 68 2.4 SSE 9 15 5 8 1035.3 1035.5 0.0
28/10:00am 8.3 5.9 5.1 80 1.4 SE 7 11 4 6 1035.4 1035.6 0.0
28/09:30am 5.4 4.1 3.9 90 0.6 CALM 0 0 0 0 1035.3 1035.5 0.0
28/09:00am 6.1 5.0 4.9 92 0.5 CALM 0 0 0 0 1034.9 1035.1 0.0
28/08:30am 3.4 1.8 2.5 94 0.4 CALM 0 0 0 0 1034.8 1035.0 0.0
28/08:00am 2.9 0.8 1.6 91 0.5 S 2 11 1 6 1034.5 1034.7 0.0
28/07:30am 3.6 1.9 2.0 89 0.6 CALM 0 0 0 0 1034.3 1034.5 0.0
28/07:00am 4.7 3.0 2.1 83 1.0 CALM 0 0 0 0 1033.9 1034.2 0.0
28/06:30am 6.4 4.5 2.7 77 1.5 S 2 6 1 3 1033.6 1033.9 0.0
28/06:00am 7.3 4.0 2.6 72 1.9 SW 9 13 5 7 1033.4 1033.7 0.0
28/05:30am 7.3 5.1 3.4 76 1.7 SW 4 9 2 5 1033.2 1033.5 0.0
28/05:00am 7.4 4.9 3.6 77 1.6 SW 6 9 3 5 1033.0 1033.3 0.0
28/04:30am 7.4 4.8 4.2 80 1.4 SSW 7 9 4 5 1033.1 1033.4 0.0
28/04:00am 7.4 4.9 4.5 82 1.3 SSW 7 11 4 6 1032.9 1033.2 0.0
28/03:30am 7.3 5.0 4.9 85 1.1 SSW 6 7 3 4 1032.9 1033.2 0.0
28/03:00am 7.6 5.1 4.7 82 1.3 SW 7 11 4 6 1032.9 1033.2 0.0
28/02:30am 7.5 5.1 5.3 86 1.0 SSW 7 9 4 5 1033.0 1033.3 0.0
28/02:00am 7.8 5.4 5.3 84 1.1 SW 7 11 4 6 1033.1 1033.4 0.0
28/01:30am 7.9 6.4 5.0 82 1.3 SSW 2 7 1 4 1033.1 1033.4 0.0
28/01:00am 8.0 5.7 5.6 85 1.1 SSW 7 11 4 6 1033.1 1033.4 0.0
28/12:30am 8.1 6.0 5.6 84 1.1 SSW 6 7 3 4 1033.3 1033.6 0.0
28/12:00am 8.3 6.2 5.6 83 1.2 SSW 6 9 3 5 1033.4 1033.7 0.0
 
Date/Time
EST
Temp
°C
App
Temp
°C
Dew
Point
Rel
Hum
%
Delta-T
°C
Wind Press
QNH
hPa
Press
MSL
hPa
Rain
since 9 am
mm
Dir
 
Spd
km/h
Gust
km/h
Spd
kts
Gust
kts
27/11:30pm 8.6 5.9 5.7 82 1.3 SW 9 13 5 7 1033.5 1033.8 0.0
27/11:00pm 8.5 6.4 5.6 82 1.3 SSW 6 7 3 4 1033.7 1034.0 0.0
27/10:30pm 8.5 6.3 5.4 81 1.4 SSW 6 7 3 4 1033.8 1034.1 0.0
27/10:00pm 8.2 7.1 5.1 81 1.4 CALM 0 0 0 0 1033.9 1034.2 0.0
27/09:30pm 8.0 5.6 5.1 82 1.3 SSW 7 11 4 6 1034.1 1034.3 0.0
27/09:00pm 7.8 6.7 4.9 82 1.3 CALM 0 0 0 0 1033.8 1034.1 0.0
27/08:30pm 8.3 7.1 4.5 77 1.7 CALM 0 0 0 0 1033.8 1034.1 0.0
27/08:00pm 9.0 6.2 5.0 76 1.8 S 9 15 5 8 1033.8 1034.1 0.0
27/07:30pm 8.7 6.3 5.3 79 1.5 S 7 11 4 6 1033.6 1033.9 0.0
27/07:00pm 8.1 5.8 5.7 85 1.1 S 7 9 4 5 1033.4 1033.7 0.0
27/06:30pm 7.1 4.8 5.6 90 0.7 SSW 7 9 4 5 1033.2 1033.5 0.0
27/06:00pm 6.8 4.3 4.5 85 1.0 SW 7 7 4 4 1033.2 1033.5 0.0
27/05:30pm 8.0 5.7 4.8 80 1.4 SW 6 7 3 4 1033.0 1033.3 0.0
27/05:00pm 9.5 6.7 5.1 74 2.0 SW 9 13 5 7 1032.9 1033.2 0.0
27/04:30pm 10.7 8.0 5.5 70 2.4 SW 9 13 5 7 1032.9 1033.2 0.0
27/04:00pm 11.3 8.2 5.6 68 2.6 SW 11 19 6 10 1032.9 1033.2 0.0
27/03:30pm 11.3 8.6 5.4 67 2.7 SW 9 17 5 9 1032.7 1033.0 0.0
27/03:00pm 10.9 8.7 5.2 68 2.6 S 6 11 3 6 1032.6 1032.9 0.0
27/02:30pm 11.0 8.4 6.0 71 2.3 SSW 9 13 5 7 1032.5 1032.8 0.0
27/02:00pm 10.3 8.2 5.7 73 2.1 SSW 6 11 3 6 1032.8 1033.1 0.0
27/01:30pm 10.3 8.2 5.9 74 2.0 SSE 6 11 3 6 1033.0 1033.3 0.0

Other Formats:

Comma delimited format used in spreadsheet applications
http://www.bom.gov.au/fwo/IDN60801/IDN60801.95706.axf

JavaScript Object Notation format (JSON) in row-major order
http://www.bom.gov.au/fwo/IDN60801/IDN60801.95706.json